sensor_id;sensor_type;location;lat;lon;timestamp;pressure;altitude;pressure_sealevel;temperature;humidity
46291;BME280;32023;44.444;26.006;2022-12-11T00:00:52;98546.00;;;9.91;92.69
46291;BME280;32023;44.444;26.006;2022-12-11T00:03:18;98535.00;;;9.91;93.04
46291;BME280;32023;44.444;26.006;2022-12-11T00:05:45;98529.50;;;9.91;93.27
46291;BME280;32023;44.444;26.006;2022-12-11T00:08:14;98530.31;;;9.91;93.32
46291;BME280;32023;44.444;26.006;2022-12-11T00:10:47;98548.47;;;9.92;93.78
46291;BME280;32023;44.444;26.006;2022-12-11T00:13:14;98541.31;;;9.91;93.55
46291;BME280;32023;44.444;26.006;2022-12-11T00:15:41;98532.78;;;9.93;93.57
46291;BME280;32023;44.444;26.006;2022-12-11T00:18:11;98523.41;;;9.94;93.49
46291;BME280;32023;44.444;26.006;2022-12-11T00:20:37;98535.75;;;9.96;93.53
46291;BME280;32023;44.444;26.006;2022-12-11T00:23:06;98531.28;;;10.00;93.87
46291;BME280;32023;44.444;26.006;2022-12-11T00:25:41;98528.75;;;10.04;93.60
46291;BME280;32023;44.444;26.006;2022-12-11T00:28:09;98522.63;;;10.07;93.72
46291;BME280;32023;44.444;26.006;2022-12-11T00:30:39;98527.53;;;10.10;93.62
46291;BME280;32023;44.444;26.006;2022-12-11T00:33:06;98514.00;;;10.13;92.84
46291;BME280;32023;44.444;26.006;2022-12-11T00:35:32;98519.72;;;10.17;92.78
46291;BME280;32023;44.444;26.006;2022-12-11T00:37:58;98517.50;;;10.19;92.60
46291;BME280;32023;44.444;26.006;2022-12-11T00:40:25;98502.03;;;10.23;92.95
46291;BME280;32023;44.444;26.006;2022-12-11T00:42:51;98486.31;;;10.24;92.25
46291;BME280;32023;44.444;26.006;2022-12-11T00:45:19;98480.53;;;10.25;92.26
46291;BME280;32023;44.444;26.006;2022-12-11T00:47:45;98465.06;;;10.29;92.41
46291;BME280;32023;44.444;26.006;2022-12-11T00:50:11;98479.31;;;10.31;92.16
46291;BME280;32023;44.444;26.006;2022-12-11T00:52:38;98478.72;;;10.34;92.06
46291;BME280;32023;44.444;26.006;2022-12-11T00:55:08;98476.66;;;10.40;91.56
46291;BME280;32023;44.444;26.006;2022-12-11T00:57:34;98448.53;;;10.43;91.66
46291;BME280;32023;44.444;26.006;2022-12-11T01:00:01;98437.34;;;10.39;91.40
46291;BME280;32023;44.444;26.006;2022-12-11T01:02:27;98443.97;;;10.38;91.17
46291;BME280;32023;44.444;26.006;2022-12-11T01:04:53;98452.72;;;10.40;90.93
46291;BME280;32023;44.444;26.006;2022-12-11T01:07:19;98445.28;;;10.41;91.10
46291;BME280;32023;44.444;26.006;2022-12-11T01:09:46;98427.47;;;10.38;91.08
46291;BME280;32023;44.444;26.006;2022-12-11T01:13:06;98418.00;;;10.31;90.47
46291;BME280;32023;44.444;26.006;2022-12-11T01:15:41;98417.78;;;10.27;91.12
46291;BME280;32023;44.444;26.006;2022-12-11T01:18:09;98420.00;;;10.25;91.15
46291;BME280;32023;44.444;26.006;2022-12-11T01:23:58;98417.19;;;10.30;91.16
46291;BME280;32023;44.444;26.006;2022-12-11T01:26:25;98404.25;;;10.31;91.18
46291;BME280;32023;44.444;26.006;2022-12-11T01:28:51;98399.22;;;10.33;90.98
46291;BME280;32023;44.444;26.006;2022-12-11T01:31:21;98407.19;;;10.34;90.91
46291;BME280;32023;44.444;26.006;2022-12-11T01:33:55;98392.81;;;10.37;91.19
46291;BME280;32023;44.444;26.006;2022-12-11T01:36:23;98395.03;;;10.35;90.82
46291;BME280;32023;44.444;26.006;2022-12-11T01:38:49;98398.31;;;10.37;91.21
46291;BME280;32023;44.444;26.006;2022-12-11T01:41:18;98391.72;;;10.38;90.69
46291;BME280;32023;44.444;26.006;2022-12-11T01:44:05;98385.38;;;10.38;91.02
46291;BME280;32023;44.444;26.006;2022-12-11T01:46:36;98378.53;;;10.35;90.90
46291;BME280;32023;44.444;26.006;2022-12-11T01:49:10;98370.91;;;10.32;90.33
46291;BME280;32023;44.444;26.006;2022-12-11T01:51:48;98380.88;;;10.28;90.75
46291;BME280;32023;44.444;26.006;2022-12-11T01:54:18;98367.75;;;10.25;91.02
46291;BME280;32023;44.444;26.006;2022-12-11T01:56:49;98364.19;;;10.25;91.13
46291;BME280;32023;44.444;26.006;2022-12-11T01:59:21;98350.22;;;10.21;90.67
46291;BME280;32023;44.444;26.006;2022-12-11T02:02:25;98341.16;;;10.21;91.28
46291;BME280;32023;44.444;26.006;2022-12-11T02:04:52;98341.69;;;10.23;91.12
46291;BME280;32023;44.444;26.006;2022-12-11T02:07:25;98332.81;;;10.26;91.22
46291;BME280;32023;44.444;26.006;2022-12-11T02:09:51;98340.88;;;10.22;90.71
46291;BME280;32023;44.444;26.006;2022-12-11T02:15:08;98337.50;;;10.25;91.46
46291;BME280;32023;44.444;26.006;2022-12-11T02:17:46;98328.13;;;10.26;91.40
46291;BME280;32023;44.444;26.006;2022-12-11T02:20:20;98329.25;;;10.25;90.75
46291;BME280;32023;44.444;26.006;2022-12-11T02:23:26;98327.13;;;10.22;90.42
46291;BME280;32023;44.444;26.006;2022-12-11T02:28:49;98318.34;;;10.20;91.22
46291;BME280;32023;44.444;26.006;2022-12-11T02:31:40;98312.63;;;10.17;90.65
46291;BME280;32023;44.444;26.006;2022-12-11T02:34:27;98309.59;;;10.18;90.80
46291;BME280;32023;44.444;26.006;2022-12-11T02:36:58;98305.22;;;10.17;91.23
46291;BME280;32023;44.444;26.006;2022-12-11T02:39:31;98302.78;;;10.16;91.15
46291;BME280;32023;44.444;26.006;2022-12-11T02:41:59;98301.97;;;10.15;91.30
46291;BME280;32023;44.444;26.006;2022-12-11T02:44:30;98292.91;;;10.14;91.02
46291;BME280;32023;44.444;26.006;2022-12-11T02:46:59;98289.03;;;10.16;91.17
46291;BME280;32023;44.444;26.006;2022-12-11T02:49:27;98288.22;;;10.15;91.15
46291;BME280;32023;44.444;26.006;2022-12-11T02:52:04;98289.28;;;10.14;91.46
46291;BME280;32023;44.444;26.006;2022-12-11T02:54:46;98279.41;;;10.13;91.12
46291;BME280;32023;44.444;26.006;2022-12-11T02:57:24;98268.41;;;10.13;91.71
46291;BME280;32023;44.444;26.006;2022-12-11T02:59:56;98276.16;;;10.11;91.70
46291;BME280;32023;44.444;26.006;2022-12-11T03:02:22;98264.34;;;10.10;91.66
46291;BME280;32023;44.444;26.006;2022-12-11T03:04:52;98269.03;;;10.10;91.15
46291;BME280;32023;44.444;26.006;2022-12-11T03:07:27;98251.09;;;10.12;91.58
46291;BME280;32023;44.444;26.006;2022-12-11T03:09:56;98251.72;;;10.09;91.35
46291;BME280;32023;44.444;26.006;2022-12-11T03:12:31;98250.91;;;10.09;91.43
46291;BME280;32023;44.444;26.006;2022-12-11T03:15:01;98239.06;;;10.08;91.29
46291;BME280;32023;44.444;26.006;2022-12-11T03:20:16;98233.38;;;10.05;91.76
46291;BME280;32023;44.444;26.006;2022-12-11T03:22:52;98244.38;;;10.05;91.70
46291;BME280;32023;44.444;26.006;2022-12-11T03:25:25;98235.03;;;10.06;91.79
46291;BME280;32023;44.444;26.006;2022-12-11T03:28:05;98224.63;;;10.03;91.76
46291;BME280;32023;44.444;26.006;2022-12-11T03:30:36;98210.69;;;9.99;91.88
46291;BME280;32023;44.444;26.006;2022-12-11T03:33:10;98204.38;;;9.99;92.18
46291;BME280;32023;44.444;26.006;2022-12-11T03:35:47;98208.78;;;10.00;92.30
46291;BME280;32023;44.444;26.006;2022-12-11T03:38:22;98212.63;;;9.99;92.19
46291;BME280;32023;44.444;26.006;2022-12-11T03:40:57;98201.63;;;9.99;92.57
46291;BME280;32023;44.444;26.006;2022-12-11T03:43:26;98193.09;;;10.00;92.85
46291;BME280;32023;44.444;26.006;2022-12-11T03:45:54;98190.81;;;10.02;92.77
46291;BME280;32023;44.444;26.006;2022-12-11T03:48:23;98194.59;;;10.06;92.77
46291;BME280;32023;44.444;26.006;2022-12-11T03:50:51;98181.66;;;10.07;93.12
46291;BME280;32023;44.444;26.006;2022-12-11T03:53:18;98184.91;;;10.09;93.03
46291;BME280;32023;44.444;26.006;2022-12-11T03:55:46;98175.81;;;10.08;92.74
46291;BME280;32023;44.444;26.006;2022-12-11T03:58:14;98178.56;;;10.08;92.70
46291;BME280;32023;44.444;26.006;2022-12-11T04:00:40;98176.16;;;10.07;92.72
46291;BME280;32023;44.444;26.006;2022-12-11T04:03:07;98173.91;;;10.09;92.91
46291;BME280;32023;44.444;26.006;2022-12-11T04:05:47;98179.41;;;10.09;93.31
46291;BME280;32023;44.444;26.006;2022-12-11T04:08:15;98183.16;;;10.13;92.92
46291;BME280;32023;44.444;26.006;2022-12-11T04:10:42;98180.97;;;10.15;92.95
46291;BME280;32023;44.444;26.006;2022-12-11T04:13:09;98184.72;;;10.19;92.90
46291;BME280;32023;44.444;26.006;2022-12-11T04:15:36;98173.72;;;10.19;92.90
46291;BME280;32023;44.444;26.006;2022-12-11T04:18:04;98174.72;;;10.23;93.00
46291;BME280;32023;44.444;26.006;2022-12-11T04:21:07;98179.06;;;10.24;92.99
46291;BME280;32023;44.444;26.006;2022-12-11T04:23:52;98185.09;;;10.26;92.75
46291;BME280;32023;44.444;26.006;2022-12-11T04:26:37;98182.00;;;10.28;92.85
46291;BME280;32023;44.444;26.006;2022-12-11T04:29:03;98175.91;;;10.31;92.67
46291;BME280;32023;44.444;26.006;2022-12-11T04:31:30;98184.66;;;10.33;92.78
46291;BME280;32023;44.444;26.006;2022-12-11T04:33:56;98166.72;;;10.35;92.07
46291;BME280;32023;44.444;26.006;2022-12-11T04:36:23;98166.09;;;10.38;92.35
46291;BME280;32023;44.444;26.006;2022-12-11T04:38:49;98167.72;;;10.39;92.42
46291;BME280;32023;44.444;26.006;2022-12-11T04:41:16;98168.72;;;10.43;92.54
46291;BME280;32023;44.444;26.006;2022-12-11T04:43:44;98164.31;;;10.42;92.30
46291;BME280;32023;44.444;26.006;2022-12-11T04:46:23;98162.91;;;10.45;92.44
46291;BME280;32023;44.444;26.006;2022-12-11T04:48:50;98163.41;;;10.47;92.54
46291;BME280;32023;44.444;26.006;2022-12-11T04:51:17;98154.84;;;10.48;92.65
46291;BME280;32023;44.444;26.006;2022-12-11T04:53:45;98150.97;;;10.49;92.75
46291;BME280;32023;44.444;26.006;2022-12-11T04:56:13;98153.72;;;10.49;92.40
46291;BME280;32023;44.444;26.006;2022-12-11T04:58:41;98150.78;;;10.46;92.67
46291;BME280;32023;44.444;26.006;2022-12-11T05:01:18;98159.81;;;10.46;93.15
46291;BME280;32023;44.444;26.006;2022-12-11T05:03:48;98154.03;;;10.48;93.38
46291;BME280;32023;44.444;26.006;2022-12-11T05:06:15;98154.84;;;10.48;93.50
46291;BME280;32023;44.444;26.006;2022-12-11T05:08:42;98156.16;;;10.51;93.15
46291;BME280;32023;44.444;26.006;2022-12-11T05:11:11;98153.38;;;10.51;93.84
46291;BME280;32023;44.444;26.006;2022-12-11T05:13:38;98148.69;;;10.51;93.58
46291;BME280;32023;44.444;26.006;2022-12-11T05:16:06;98152.91;;;10.49;94.05
46291;BME280;32023;44.444;26.006;2022-12-11T05:18:34;98158.72;;;10.47;94.20
46291;BME280;32023;44.444;26.006;2022-12-11T05:21:05;98148.69;;;10.51;94.25
46291;BME280;32023;44.444;26.006;2022-12-11T05:23:37;98153.75;;;10.58;94.75
46291;BME280;32023;44.444;26.006;2022-12-11T05:26:12;98160.09;;;10.58;94.19
46291;BME280;32023;44.444;26.006;2022-12-11T05:28:39;98170.47;;;10.61;94.40
46291;BME280;32023;44.444;26.006;2022-12-11T05:31:28;98171.47;;;10.66;93.81
46291;BME280;32023;44.444;26.006;2022-12-11T05:33:54;98168.09;;;10.69;93.91
46291;BME280;32023;44.444;26.006;2022-12-11T05:36:23;98171.81;;;10.73;93.79
46291;BME280;32023;44.444;26.006;2022-12-11T05:38:57;98166.53;;;10.76;93.95
46291;BME280;32023;44.444;26.006;2022-12-11T05:41:26;98171.06;;;10.81;93.77
46291;BME280;32023;44.444;26.006;2022-12-11T05:43:53;98173.22;;;10.84;93.74
46291;BME280;32023;44.444;26.006;2022-12-11T05:46:22;98169.31;;;10.85;93.46
46291;BME280;32023;44.444;26.006;2022-12-11T05:48:51;98180.03;;;10.86;93.12
46291;BME280;32023;44.444;26.006;2022-12-11T05:51:18;98178.09;;;10.87;92.97
46291;BME280;32023;44.444;26.006;2022-12-11T05:53:46;98185.84;;;10.85;93.14
46291;BME280;32023;44.444;26.006;2022-12-11T05:56:18;98191.34;;;10.85;92.31
46291;BME280;32023;44.444;26.006;2022-12-11T05:58:47;98185.84;;;10.85;92.20
46291;BME280;32023;44.444;26.006;2022-12-11T06:01:20;98187.47;;;10.86;92.04
46291;BME280;32023;44.444;26.006;2022-12-11T06:03:46;98178.56;;;10.89;92.63
46291;BME280;32023;44.444;26.006;2022-12-11T06:06:13;98200.47;;;10.94;92.69
46291;BME280;32023;44.444;26.006;2022-12-11T06:08:40;98207.28;;;10.96;91.89
46291;BME280;32023;44.444;26.006;2022-12-11T06:11:06;98213.31;;;10.98;92.15
46291;BME280;32023;44.444;26.006;2022-12-11T06:13:34;98202.78;;;11.00;91.83
46291;BME280;32023;44.444;26.006;2022-12-11T06:16:05;98213.66;;;11.05;91.87
46291;BME280;32023;44.444;26.006;2022-12-11T06:18:36;98218.06;;;11.06;91.64
46291;BME280;32023;44.444;26.006;2022-12-11T06:21:23;98226.50;;;11.10;91.61
46291;BME280;32023;44.444;26.006;2022-12-11T06:23:54;98226.69;;;11.14;91.65
46291;BME280;32023;44.444;26.006;2022-12-11T06:26:27;98218.09;;;11.15;91.05
46291;BME280;32023;44.444;26.006;2022-12-11T06:28:55;98229.63;;;11.17;91.72
46291;BME280;32023;44.444;26.006;2022-12-11T06:31:22;98230.09;;;11.19;91.21
46291;BME280;32023;44.444;26.006;2022-12-11T06:34:42;98241.94;;;11.20;91.06
46291;BME280;32023;44.444;26.006;2022-12-11T06:37:14;98236.59;;;11.23;91.45
46291;BME280;32023;44.444;26.006;2022-12-11T06:39:53;98241.47;;;11.26;91.08
46291;BME280;32023;44.444;26.006;2022-12-11T06:42:19;98153.19;;;10.70;90.96
46291;BME280;32023;44.444;26.006;2022-12-11T06:45:09;98244.91;;;11.32;90.69
46291;BME280;32023;44.444;26.006;2022-12-11T06:47:42;98256.13;;;11.35;90.69
46291;BME280;32023;44.444;26.006;2022-12-11T06:50:19;98269.38;;;11.33;90.97
46291;BME280;32023;44.444;26.006;2022-12-11T06:52:46;98269.78;;;11.40;90.98
46291;BME280;32023;44.444;26.006;2022-12-11T06:55:12;98279.06;;;11.53;91.49
46291;BME280;32023;44.444;26.006;2022-12-11T06:57:39;98282.84;;;11.66;90.96
46291;BME280;32023;44.444;26.006;2022-12-11T07:00:05;98284.22;;;11.77;90.87
46291;BME280;32023;44.444;26.006;2022-12-11T07:02:32;98285.28;;;11.89;90.88
46291;BME280;32023;44.444;26.006;2022-12-11T07:05:02;98295.53;;;12.06;90.74
46291;BME280;32023;44.444;26.006;2022-12-11T07:07:29;98296.38;;;12.24;90.13
46291;BME280;32023;44.444;26.006;2022-12-11T07:09:55;98299.50;;;12.39;88.53
46291;BME280;32023;44.444;26.006;2022-12-11T07:12:22;98293.84;;;12.62;88.17
46291;BME280;32023;44.444;26.006;2022-12-11T07:14:48;98302.00;;;12.84;87.18
46291;BME280;32023;44.444;26.006;2022-12-11T07:17:14;98291.75;;;13.01;86.06
46291;BME280;32023;44.444;26.006;2022-12-11T07:19:41;98291.28;;;13.17;85.08
46291;BME280;32023;44.444;26.006;2022-12-11T07:22:07;98294.03;;;13.25;84.66
46291;BME280;32023;44.444;26.006;2022-12-11T07:24:34;98299.88;;;13.32;84.40
46291;BME280;32023;44.444;26.006;2022-12-11T07:27:00;98304.25;;;13.33;83.94
46291;BME280;32023;44.444;26.006;2022-12-11T07:29:27;98304.41;;;13.37;84.26
46291;BME280;32023;44.444;26.006;2022-12-11T07:31:53;98301.97;;;13.35;83.97
46291;BME280;32023;44.444;26.006;2022-12-11T07:34:22;98299.84;;;13.41;83.82
46291;BME280;32023;44.444;26.006;2022-12-11T07:36:52;98308.78;;;13.46;83.72
46291;BME280;32023;44.444;26.006;2022-12-11T07:39:18;98306.84;;;13.47;83.85
46291;BME280;32023;44.444;26.006;2022-12-11T07:41:45;98324.03;;;13.52;83.43
46291;BME280;32023;44.444;26.006;2022-12-11T07:44:12;98341.44;;;13.53;83.70
46291;BME280;32023;44.444;26.006;2022-12-11T07:46:38;98351.69;;;13.52;83.62
46291;BME280;32023;44.444;26.006;2022-12-11T07:49:06;98349.59;;;13.58;83.78
46291;BME280;32023;44.444;26.006;2022-12-11T07:51:42;98360.81;;;13.53;83.96
46291;BME280;32023;44.444;26.006;2022-12-11T07:54:13;98365.38;;;13.58;84.06
46291;BME280;32023;44.444;26.006;2022-12-11T07:56:45;98366.94;;;13.76;83.56
46291;BME280;32023;44.444;26.006;2022-12-11T07:59:13;98369.63;;;14.02;83.01
46291;BME280;32023;44.444;26.006;2022-12-11T08:01:42;98365.75;;;14.32;80.91
46291;BME280;32023;44.444;26.006;2022-12-11T08:04:11;98365.28;;;14.68;79.79
46291;BME280;32023;44.444;26.006;2022-12-11T08:06:41;98367.59;;;15.07;77.04
46291;BME280;32023;44.444;26.006;2022-12-11T08:09:42;98371.84;;;15.67;74.91
46291;BME280;32023;44.444;26.006;2022-12-11T08:39:16;98370.22;;;19.16;57.33
46291;BME280;32023;44.444;26.006;2022-12-11T08:41:52;98371.59;;;19.61;55.50
46291;BME280;32023;44.444;26.006;2022-12-11T08:44:35;98365.97;;;19.99;54.28
46291;BME280;32023;44.444;26.006;2022-12-11T08:47:40;98362.91;;;20.50;52.87
46291;BME280;32023;44.444;26.006;2022-12-11T08:53:05;98356.63;;;20.83;51.49
46291;BME280;32023;44.444;26.006;2022-12-11T08:59:26;98348.28;;;20.60;50.76
46291;BME280;32023;44.444;26.006;2022-12-11T09:02:44;98363.66;;;20.47;51.51
46291;BME280;32023;44.444;26.006;2022-12-11T09:15:29;98365.19;;;21.20;48.16
46291;BME280;32023;44.444;26.006;2022-12-11T09:21:33;98337.66;;;20.24;51.22
46291;BME280;32023;44.444;26.006;2022-12-11T09:24:16;98342.88;;;20.02;52.23
46291;BME280;32023;44.444;26.006;2022-12-11T09:33:38;98325.00;;;21.98;47.49
46291;BME280;32023;44.444;26.006;2022-12-11T09:36:05;98320.88;;;22.76;44.86
46291;BME280;32023;44.444;26.006;2022-12-11T09:38:41;98322.94;;;23.52;42.67
46291;BME280;32023;44.444;26.006;2022-12-11T09:41:36;98342.41;;;24.13;40.53
46291;BME280;32023;44.444;26.006;2022-12-11T09:46:59;98361.34;;;25.12;38.94
46291;BME280;32023;44.444;26.006;2022-12-11T09:49:40;98356.09;;;25.21;38.28
46291;BME280;32023;44.444;26.006;2022-12-11T09:55:19;98362.44;;;26.95;35.07
46291;BME280;32023;44.444;26.006;2022-12-11T10:00:36;98355.28;;;24.18;39.45
46291;BME280;32023;44.444;26.006;2022-12-11T10:17:19;98337.53;;;26.83;34.48
46291;BME280;32023;44.444;26.006;2022-12-11T10:19:46;98325.28;;;27.00;33.96
46291;BME280;32023;44.444;26.006;2022-12-11T10:22:22;98331.69;;;27.01;33.60
46291;BME280;32023;44.444;26.006;2022-12-11T10:24:57;98339.97;;;27.22;33.43
46291;BME280;32023;44.444;26.006;2022-12-11T10:27:27;98340.56;;;25.89;35.54
46291;BME280;32023;44.444;26.006;2022-12-11T10:30:19;98344.03;;;24.78;37.86
46291;BME280;32023;44.444;26.006;2022-12-11T10:32:57;98336.22;;;23.65;40.30
46291;BME280;32023;44.444;26.006;2022-12-11T10:35:56;98345.66;;;21.86;43.74
46291;BME280;32023;44.444;26.006;2022-12-11T10:38:30;98338.50;;;20.99;46.29
46291;BME280;32023;44.444;26.006;2022-12-11T10:41:00;98334.69;;;20.36;48.61
46291;BME280;32023;44.444;26.006;2022-12-11T10:43:39;98328.66;;;19.69;50.41
46291;BME280;32023;44.444;26.006;2022-12-11T10:52:50;98323.00;;;19.27;53.21
46291;BME280;32023;44.444;26.006;2022-12-11T10:55:46;98332.22;;;20.80;50.46
46291;BME280;32023;44.444;26.006;2022-12-11T10:58:31;98322.28;;;24.01;42.16
46291;BME280;32023;44.444;26.006;2022-12-11T11:01:09;98311.75;;;26.74;35.89
46291;BME280;32023;44.444;26.006;2022-12-11T11:04:14;98314.84;;;27.95;32.03
46291;BME280;32023;44.444;26.006;2022-12-11T11:06:47;98328.81;;;26.60;33.62
46291;BME280;32023;44.444;26.006;2022-12-11T11:09:36;98319.72;;;26.38;34.38
46291;BME280;32023;44.444;26.006;2022-12-11T11:12:14;98320.97;;;26.85;33.30
46291;BME280;32023;44.444;26.006;2022-12-11T11:14:46;98317.97;;;27.74;31.71
46291;BME280;32023;44.444;26.006;2022-12-11T11:17:23;98324.88;;;28.00;30.37
46291;BME280;32023;44.444;26.006;2022-12-11T11:20:34;98312.59;;;28.63;30.23
46291;BME280;32023;44.444;26.006;2022-12-11T11:23:12;98305.13;;;29.19;29.18
46291;BME280;32023;44.444;26.006;2022-12-11T11:26:08;98319.66;;;28.79;29.50
46291;BME280;32023;44.444;26.006;2022-12-11T11:28:48;98301.66;;;27.85;31.54
46291;BME280;32023;44.444;26.006;2022-12-11T11:31:29;98300.69;;;27.31;31.98
46291;BME280;32023;44.444;26.006;2022-12-11T11:37:38;98298.09;;;27.10;32.37
46291;BME280;32023;44.444;26.006;2022-12-11T11:40:24;98301.91;;;26.45;33.27
46291;BME280;32023;44.444;26.006;2022-12-11T11:43:23;98299.81;;;26.01;33.75
46291;BME280;32023;44.444;26.006;2022-12-11T11:58:11;98330.75;;;23.18;40.04
46291;BME280;32023;44.444;26.006;2022-12-11T12:00:40;98333.00;;;21.99;43.07
46291;BME280;32023;44.444;26.006;2022-12-11T12:03:15;98304.16;;;20.73;45.66
46291;BME280;32023;44.444;26.006;2022-12-11T12:06:07;98351.94;;;20.18;48.27
46291;BME280;32023;44.444;26.006;2022-12-11T12:14:54;98345.50;;;19.53;51.53
46291;BME280;32023;44.444;26.006;2022-12-11T12:17:54;98346.56;;;19.10;52.99
46291;BME280;32023;44.444;26.006;2022-12-11T12:27:41;98361.50;;;18.05;56.36
46291;BME280;32023;44.444;26.006;2022-12-11T12:30:17;98356.97;;;17.57;58.20
46291;BME280;32023;44.444;26.006;2022-12-11T12:39:05;98349.72;;;17.00;61.15
46291;BME280;32023;44.444;26.006;2022-12-11T12:42:06;98347.78;;;16.89;61.68
46291;BME280;32023;44.444;26.006;2022-12-11T12:47:46;98343.97;;;16.81;62.01
46291;BME280;32023;44.444;26.006;2022-12-11T12:50:25;98362.63;;;16.80;61.74
46291;BME280;32023;44.444;26.006;2022-12-11T12:52:53;98354.88;;;16.74;62.36
46291;BME280;32023;44.444;26.006;2022-12-11T12:55:32;98364.13;;;16.66;62.21
46291;BME280;32023;44.444;26.006;2022-12-11T12:58:06;98363.09;;;16.46;62.82
46291;BME280;32023;44.444;26.006;2022-12-11T13:00:39;98370.81;;;16.28;64.03
46291;BME280;32023;44.444;26.006;2022-12-11T13:03:48;98374.28;;;16.01;66.27
46291;BME280;32023;44.444;26.006;2022-12-11T13:06:26;98387.38;;;15.80;67.35
46291;BME280;32023;44.444;26.006;2022-12-11T13:09:16;98396.53;;;15.60;68.00
46291;BME280;32023;44.444;26.006;2022-12-11T13:11:57;98404.53;;;15.40;69.20
46291;BME280;32023;44.444;26.006;2022-12-11T13:14:29;98406.03;;;15.17;70.28
46291;BME280;32023;44.444;26.006;2022-12-11T13:17:34;98394.03;;;14.84;71.18
46291;BME280;32023;44.444;26.006;2022-12-11T13:20:33;98408.41;;;14.48;73.16
46291;BME280;32023;44.444;26.006;2022-12-11T13:23:32;98399.97;;;14.36;73.64
46291;BME280;32023;44.444;26.006;2022-12-11T13:26:39;98406.53;;;14.23;74.63
46291;BME280;32023;44.444;26.006;2022-12-11T13:29:37;98399.59;;;13.99;75.19
46291;BME280;32023;44.444;26.006;2022-12-11T13:32:37;98412.00;;;13.85;75.59
46291;BME280;32023;44.444;26.006;2022-12-11T13:42:19;98401.34;;;13.40;78.47
46291;BME280;32023;44.444;26.006;2022-12-11T13:45:55;98405.06;;;13.27;79.03
46291;BME280;32023;44.444;26.006;2022-12-11T13:48:01;98405.66;;;13.07;79.63
46291;BME280;32023;44.444;26.006;2022-12-11T13:57:28;98410.00;;;12.74;81.28
46291;BME280;32023;44.444;26.006;2022-12-11T14:03:06;98430.28;;;12.21;83.72
46291;BME280;32023;44.444;26.006;2022-12-11T14:05:38;98443.38;;;12.07;84.51
46291;BME280;32023;44.444;26.006;2022-12-11T14:08:28;98456.25;;;11.89;84.83
46291;BME280;32023;44.444;26.006;2022-12-11T14:14:41;98473.94;;;11.52;86.56
46291;BME280;32023;44.444;26.006;2022-12-11T14:27:20;98519.09;;;10.93;87.77
46291;BME280;32023;44.444;26.006;2022-12-11T14:29:47;98503.38;;;10.80;88.20
46291;BME280;32023;44.444;26.006;2022-12-11T14:32:48;98477.69;;;10.57;90.16
46291;BME280;32023;44.444;26.006;2022-12-11T14:38:43;98451.75;;;10.04;94.31
46291;BME280;32023;44.444;26.006;2022-12-11T14:48:22;98423.94;;;9.59;96.42
46291;BME280;32023;44.444;26.006;2022-12-11T14:50:59;98427.91;;;9.53;96.50
46291;BME280;32023;44.444;26.006;2022-12-11T14:53:36;98444.44;;;9.48;96.63
46291;BME280;32023;44.444;26.006;2022-12-11T14:56:07;98458.34;;;9.38;95.96
46291;BME280;32023;44.444;26.006;2022-12-11T14:58:42;98475.50;;;9.30;95.36
46291;BME280;32023;44.444;26.006;2022-12-11T15:01:45;98478.56;;;9.10;93.55
46291;BME280;32023;44.444;26.006;2022-12-11T15:04:31;98482.53;;;8.99;93.79
46291;BME280;32023;44.444;26.006;2022-12-11T15:07:15;98479.34;;;8.92;94.04
46291;BME280;32023;44.444;26.006;2022-12-11T15:09:46;98484.81;;;8.73;94.83
46291;BME280;32023;44.444;26.006;2022-12-11T15:12:17;98490.06;;;8.69;95.35
46291;BME280;32023;44.444;26.006;2022-12-11T15:14:57;98515.94;;;8.63;95.73
46291;BME280;32023;44.444;26.006;2022-12-11T15:17:29;98542.91;;;8.56;96.82
46291;BME280;32023;44.444;26.006;2022-12-11T15:20:22;98547.94;;;8.49;98.21
46291;BME280;32023;44.444;26.006;2022-12-11T15:23:01;98495.47;;;8.27;98.82
46291;BME280;32023;44.444;26.006;2022-12-11T15:25:30;98528.72;;;8.49;99.73
46291;BME280;32023;44.444;26.006;2022-12-11T15:28:00;98549.03;;;8.48;99.61
46291;BME280;32023;44.444;26.006;2022-12-11T15:30:32;98554.78;;;8.47;99.84
46291;BME280;32023;44.444;26.006;2022-12-11T15:35:50;98562.44;;;8.21;97.17
46291;BME280;32023;44.444;26.006;2022-12-11T15:38:46;98577.91;;;8.07;97.58
46291;BME280;32023;44.444;26.006;2022-12-11T15:41:20;98580.69;;;8.02;98.54
46291;BME280;32023;44.444;26.006;2022-12-11T15:47:13;98567.03;;;7.97;99.60
46291;BME280;32023;44.444;26.006;2022-12-11T15:49:40;98555.53;;;7.95;100.00
46291;BME280;32023;44.444;26.006;2022-12-11T15:52:08;98548.47;;;7.89;100.00
46291;BME280;32023;44.444;26.006;2022-12-11T15:54:37;98561.94;;;7.85;100.00
46291;BME280;32023;44.444;26.006;2022-12-11T15:57:21;98567.09;;;7.87;100.00
46291;BME280;32023;44.444;26.006;2022-12-11T15:59:53;98558.94;;;7.82;100.00
46291;BME280;32023;44.444;26.006;2022-12-11T16:02:26;98560.06;;;7.75;100.00
46291;BME280;32023;44.444;26.006;2022-12-11T16:04:59;98567.00;;;7.63;100.00
46291;BME280;32023;44.444;26.006;2022-12-11T16:07:28;98584.91;;;7.50;99.39
46291;BME280;32023;44.444;26.006;2022-12-11T16:13:42;98565.38;;;7.18;99.46
46291;BME280;32023;44.444;26.006;2022-12-11T16:16:12;98575.03;;;7.05;99.60
46291;BME280;32023;44.444;26.006;2022-12-11T16:21:36;98567.16;;;6.89;100.00
46291;BME280;32023;44.444;26.006;2022-12-11T16:24:03;98567.16;;;6.84;100.00
46291;BME280;32023;44.444;26.006;2022-12-11T16:26:29;98574.84;;;6.76;100.00
46291;BME280;32023;44.444;26.006;2022-12-11T16:28:55;98567.78;;;6.65;100.00
46291;BME280;32023;44.444;26.006;2022-12-11T16:31:30;98554.66;;;6.62;100.00
46291;BME280;32023;44.444;26.006;2022-12-11T16:34:05;98557.41;;;6.57;100.00
46291;BME280;32023;44.444;26.006;2022-12-11T16:36:31;98562.06;;;6.57;100.00